createdAt,value
2019-01-15T00:00:02.603Z,0
2019-01-15T00:01:02.300Z,0
2019-01-15T00:02:02.532Z,0
2019-01-15T00:03:02.505Z,0
2019-01-15T00:04:02.485Z,0
2019-01-15T00:05:02.532Z,0
2019-01-15T00:06:02.197Z,0
2019-01-15T00:07:02.425Z,0
2019-01-15T00:08:02.152Z,0
2019-01-15T00:09:02.385Z,0
2019-01-15T00:10:02.378Z,0
2019-01-15T00:11:02.346Z,0
2019-01-15T00:12:07.731Z,0
2019-01-15T00:13:02.307Z,0
2019-01-15T00:14:02.280Z,0
2019-01-15T00:15:02.264Z,0
2019-01-15T00:16:02.246Z,0
2019-01-15T00:17:01.978Z,0
2019-01-15T00:18:02.207Z,0
2019-01-15T00:19:01.934Z,0
2019-01-15T00:20:02.161Z,0
2019-01-15T00:21:02.145Z,0
2019-01-15T00:22:01.870Z,0
2019-01-15T00:23:01.859Z,0
2019-01-15T00:24:01.832Z,0
2019-01-15T00:25:02.067Z,0
2019-01-15T00:26:01.793Z,0
2019-01-15T00:27:01.930Z,0
2019-01-15T00:28:02.005Z,0
2019-01-15T00:29:01.981Z,0
2019-01-15T00:30:01.960Z,0
2019-01-15T00:31:01.942Z,0
2019-01-15T00:32:01.969Z,0
2019-01-15T00:33:01.901Z,0
2019-01-15T00:34:01.883Z,0
2019-01-15T00:35:01.613Z,0
2019-01-15T00:36:01.857Z,0
2019-01-15T00:37:01.822Z,0
2019-01-15T00:38:01.812Z,0
2019-01-15T00:39:01.537Z,0
2019-01-15T00:40:01.767Z,0
2019-01-15T00:41:01.500Z,0
2019-01-15T00:42:01.482Z,0
2019-01-15T00:43:01.703Z,0
2019-01-15T00:44:01.682Z,0
2019-01-15T00:45:01.665Z,0
2019-01-15T00:46:01.647Z,0
2019-01-15T00:47:01.653Z,0
2019-01-15T00:48:01.631Z,0
2019-01-15T00:49:01.610Z,0
2019-01-15T00:50:01.591Z,0
2019-01-15T00:51:01.325Z,0
2019-01-15T00:52:01.546Z,0
2019-01-15T00:53:01.554Z,0
2019-01-15T00:54:01.535Z,0
2019-01-15T00:55:01.513Z,0
2019-01-15T00:56:14.238Z,0
2019-01-15T00:57:01.483Z,0
2019-01-15T00:58:01.216Z,0
2019-01-15T00:59:01.434Z,0
2019-01-15T01:00:01.425Z,0
2019-01-15T01:01:01.404Z,0
2019-01-15T01:02:01.131Z,0
2019-01-15T01:03:01.358Z,0
2019-01-15T01:04:01.340Z,0
2019-01-15T01:05:01.322Z,0
2019-01-15T01:06:01.296Z,0
2019-01-15T01:07:01.272Z,0
2019-01-15T01:08:01.258Z,0
2019-01-15T01:09:01.237Z,0
2019-01-15T01:10:00.969Z,0
2019-01-15T01:11:01.200Z,0
2019-01-15T01:12:01.174Z,0
2019-01-15T01:13:01.169Z,0
2019-01-15T01:14:00.894Z,0
2019-01-15T01:15:01.126Z,0
2019-01-15T01:16:01.098Z,0
2019-01-15T01:17:00.836Z,0
2019-01-15T01:18:01.063Z,0
2019-01-15T01:19:00.792Z,0
2019-01-15T01:20:01.026Z,0
2019-01-15T01:21:00.778Z,0
2019-01-15T01:22:01.023Z,0
2019-01-15T01:23:00.965Z,0
2019-01-15T01:24:00.936Z,0
2019-01-15T01:25:00.921Z,0
2019-01-15T01:26:00.895Z,0
2019-01-15T01:27:00.880Z,0
2019-01-15T01:28:00.868Z,0
2019-01-15T01:29:00.849Z,0
2019-01-15T01:30:00.576Z,0
2019-01-15T01:31:00.602Z,0
2019-01-15T01:32:00.791Z,0
2019-01-15T01:33:00.816Z,0
2019-01-15T01:34:00.492Z,0
2019-01-15T01:35:00.721Z,0
2019-01-15T01:36:00.705Z,0
2019-01-15T01:37:00.427Z,0
2019-01-15T01:38:00.414Z,0
2019-01-15T01:39:00.392Z,0
2019-01-15T01:40:00.624Z,0
2019-01-15T01:41:00.595Z,0
2019-01-15T01:42:00.337Z,0
2019-01-15T01:43:00.317Z,0
2019-01-15T01:44:00.535Z,0
2019-01-15T01:45:00.520Z,0
2019-01-15T01:46:00.500Z,0
2019-01-15T01:47:00.481Z,0
2019-01-15T01:48:00.210Z,0
2019-01-15T01:49:00.443Z,0
2019-01-15T01:50:00.422Z,0
2019-01-15T01:51:00.159Z,0
2019-01-15T01:52:00.136Z,0
2019-01-15T01:53:00.359Z,0
2019-01-15T01:54:00.351Z,0
2019-01-15T01:55:00.215Z,0
2019-01-15T01:56:00.305Z,0
2019-01-15T01:57:00.037Z,0
2019-01-15T01:58:00.263Z,0
2019-01-15T01:59:00.248Z,0
2019-01-15T01:59:59.976Z,0
2019-01-15T02:00:59.962Z,0
2019-01-15T02:02:00.195Z,0
2019-01-15T02:03:00.165Z,0
2019-01-15T02:03:59.899Z,0
2019-01-15T02:04:59.876Z,0
2019-01-15T02:06:00.104Z,0
2019-01-15T02:07:00.089Z,0
2019-01-15T02:07:59.820Z,0
2019-01-15T02:09:00.044Z,0
2019-01-15T02:10:00.033Z,0
2019-01-15T02:11:00.005Z,0
2019-01-15T02:11:59.985Z,0
2019-01-15T02:12:59.961Z,0
2019-01-15T02:13:59.700Z,0
2019-01-15T02:14:59.683Z,0
2019-01-15T02:15:59.909Z,0
2019-01-15T02:16:59.646Z,0
2019-01-15T02:17:59.867Z,0
2019-01-15T02:18:59.657Z,0
2019-01-15T02:19:59.824Z,0
2019-01-15T02:20:59.806Z,0
2019-01-15T02:21:59.833Z,0
2019-01-15T02:22:59.769Z,0
2019-01-15T02:23:59.746Z,0
2019-01-15T02:24:59.729Z,0
2019-01-15T02:25:59.708Z,0
2019-01-15T02:26:59.445Z,0
2019-01-15T02:27:59.669Z,0
2019-01-15T02:28:59.150Z,0
2019-01-15T02:29:59.636Z,0
2019-01-15T02:30:59.606Z,0
2019-01-15T02:31:59.588Z,0
2019-01-15T02:32:59.316Z,0
2019-01-15T02:33:59.600Z,0
2019-01-15T02:34:59.281Z,0
2019-01-15T02:35:59.520Z,0
2019-01-15T02:36:59.537Z,0
2019-01-15T02:37:59.478Z,0
2019-01-15T02:38:59.451Z,0
2019-01-15T02:39:59.430Z,0
2019-01-15T02:40:59.438Z,0
2019-01-15T02:41:59.410Z,0
2019-01-15T02:42:59.375Z,0
2019-01-15T02:43:59.361Z,0
2019-01-15T02:44:59.333Z,0
2019-01-15T02:45:59.063Z,0
2019-01-15T02:46:59.287Z,0
2019-01-15T02:47:59.044Z,0
2019-01-15T02:48:59.260Z,0
2019-01-15T02:49:59.233Z,0
2019-01-15T02:50:59.225Z,0
2019-01-15T02:51:59.196Z,0
2019-01-15T02:52:58.934Z,0
2019-01-15T02:53:59.163Z,0
2019-01-15T02:54:59.190Z,0
2019-01-15T02:55:58.863Z,0
2019-01-15T02:56:59.093Z,0
2019-01-15T02:57:59.073Z,0
2019-01-15T02:58:59.057Z,0
2019-01-15T02:59:59.046Z,0
2019-01-15T03:00:59.022Z,0
2019-01-15T03:01:58.999Z,0
2019-01-15T03:02:58.998Z,0
2019-01-15T03:03:59.011Z,0
2019-01-15T03:04:58.691Z,0
2019-01-15T03:05:58.919Z,0
2019-01-15T03:06:58.905Z,0
2019-01-15T03:07:58.884Z,0
2019-01-15T03:08:58.857Z,0
2019-01-15T03:09:58.840Z,0
2019-01-15T03:10:58.821Z,0
2019-01-15T03:11:58.818Z,0
2019-01-15T03:13:02.990Z,0
2019-01-15T03:13:58.528Z,0
2019-01-15T03:14:58.740Z,0
2019-01-15T03:15:58.726Z,0
2019-01-15T03:16:58.715Z,0
2019-01-15T03:17:58.681Z,0
2019-01-15T03:18:58.667Z,0
2019-01-15T03:19:58.389Z,0
2019-01-15T03:20:58.383Z,0
2019-01-15T03:21:58.605Z,0
2019-01-15T03:22:58.596Z,0
2019-01-15T03:23:58.310Z,0
2019-01-15T03:24:58.547Z,0
2019-01-15T03:25:58.276Z,0
2019-01-15T03:26:58.517Z,0
2019-01-15T03:27:58.257Z,0
2019-01-15T03:28:58.472Z,0
2019-01-15T03:29:58.451Z,0
2019-01-15T03:30:58.434Z,0
2019-01-15T03:31:58.432Z,0
2019-01-15T03:32:58.446Z,0
2019-01-15T03:33:58.466Z,0
2019-01-15T03:34:58.345Z,0
2019-01-15T03:35:58.084Z,0
2019-01-15T03:36:58.321Z,0
2019-01-15T03:37:58.286Z,0
2019-01-15T03:38:58.270Z,0
2019-01-15T03:39:58.255Z,0
2019-01-15T03:40:58.238Z,0
2019-01-15T03:41:58.211Z,0
2019-01-15T03:43:05.838Z,0
2019-01-15T03:43:58.179Z,0
2019-01-15T03:44:57.900Z,0
2019-01-15T03:46:04.124Z,0
2019-01-15T03:46:57.860Z,0
2019-01-15T03:47:58.107Z,0
2019-01-15T03:48:58.076Z,0
2019-01-15T03:49:57.562Z,0
2019-01-15T03:50:58.043Z,0
2019-01-15T03:51:58.019Z,0
2019-01-15T03:52:57.758Z,0
2019-01-15T03:53:57.989Z,0
2019-01-15T03:54:57.966Z,0
2019-01-15T03:55:57.936Z,0
2019-01-15T03:56:57.915Z,0
2019-01-15T03:57:57.910Z,0
2019-01-15T03:58:57.879Z,0
2019-01-15T03:59:57.861Z,0
2019-01-15T04:00:57.861Z,0
2019-01-15T04:01:57.582Z,0
2019-01-15T04:02:57.811Z,0
2019-01-15T04:03:57.785Z,0
2019-01-15T04:04:57.758Z,0
2019-01-15T04:05:57.493Z,0
2019-01-15T04:06:57.719Z,0
2019-01-15T04:07:57.697Z,0
2019-01-15T04:08:57.686Z,0
2019-01-15T04:09:57.661Z,0
2019-01-15T04:10:57.644Z,0
2019-01-15T04:11:57.639Z,0
2019-01-15T04:12:57.605Z,0
2019-01-15T04:13:57.594Z,0
2019-01-15T04:14:57.560Z,0
2019-01-15T04:15:57.313Z,0
2019-01-15T04:16:57.279Z,0
2019-01-15T04:17:57.517Z,0
2019-01-15T04:18:57.709Z,0
2019-01-15T04:19:57.471Z,0
2019-01-15T04:20:57.457Z,0
2019-01-15T04:21:57.434Z,0
2019-01-15T04:22:57.426Z,0
2019-01-15T04:23:57.385Z,0
2019-01-15T04:24:57.382Z,0
2019-01-15T04:25:57.361Z,0
2019-01-15T04:26:56.842Z,0
2019-01-15T04:27:57.062Z,0
2019-01-15T04:28:57.038Z,0
2019-01-15T04:29:57.275Z,0
2019-01-15T04:30:57.257Z,0
2019-01-15T04:31:56.987Z,0
2019-01-15T04:32:57.220Z,0
2019-01-15T04:33:57.226Z,0
2019-01-15T04:34:57.169Z,0
2019-01-15T04:35:57.162Z,0
2019-01-15T04:36:57.134Z,0
2019-01-15T04:37:57.130Z,0
2019-01-15T04:38:57.094Z,0
2019-01-15T04:39:56.825Z,0
2019-01-15T04:40:57.057Z,0
2019-01-15T04:41:56.815Z,0
2019-01-15T04:42:57.017Z,0
2019-01-15T04:43:56.992Z,0
2019-01-15T04:44:56.972Z,0
2019-01-15T04:45:56.968Z,0
2019-01-15T04:46:56.680Z,0
2019-01-15T04:47:56.914Z,0
2019-01-15T04:48:56.659Z,0
2019-01-15T04:49:56.877Z,0
2019-01-15T04:50:56.608Z,0
2019-01-15T04:51:56.846Z,0
2019-01-15T04:52:56.573Z,0
2019-01-15T04:53:56.788Z,0
2019-01-15T04:54:56.789Z,0
2019-01-15T04:55:56.524Z,0
2019-01-15T04:56:56.747Z,0
2019-01-15T04:57:56.716Z,0
2019-01-15T04:58:56.452Z,0
2019-01-15T04:59:56.180Z,0
2019-01-15T05:00:56.660Z,0
2019-01-15T05:01:56.390Z,0
2019-01-15T05:02:56.618Z,0
2019-01-15T05:03:57.012Z,0
2019-01-15T05:04:56.589Z,0
2019-01-15T05:05:56.414Z,0
2019-01-15T05:06:56.541Z,0
2019-01-15T05:07:56.534Z,0
2019-01-15T05:08:56.507Z,0
2019-01-15T05:09:56.487Z,0
2019-01-15T05:10:56.464Z,0
2019-01-15T05:11:56.514Z,0
2019-01-15T05:12:56.449Z,0
2019-01-15T05:13:56.156Z,0
2019-01-15T05:14:56.390Z,0
2019-01-15T05:15:56.362Z,0
2019-01-15T05:16:56.095Z,0
2019-01-15T05:17:56.322Z,0
2019-01-15T05:18:56.306Z,0
2019-01-15T05:19:56.286Z,0
2019-01-15T05:20:56.935Z,0
2019-01-15T05:21:56.251Z,0
2019-01-15T05:22:56.249Z,0
2019-01-15T05:23:56.214Z,0
2019-01-15T05:24:56.192Z,0
2019-01-15T05:25:56.173Z,0
2019-01-15T05:26:56.156Z,0
2019-01-15T05:27:56.132Z,0
2019-01-15T05:28:56.112Z,0
2019-01-15T05:29:56.093Z,0
2019-01-15T05:30:55.834Z,0
2019-01-15T05:31:56.113Z,0
2019-01-15T05:32:56.055Z,0
2019-01-15T05:33:55.761Z,0
2019-01-15T05:34:55.995Z,0
2019-01-15T05:35:55.724Z,0
2019-01-15T05:36:55.974Z,0
2019-01-15T05:37:55.950Z,0
2019-01-15T05:38:55.675Z,0
2019-01-15T05:39:55.924Z,0
2019-01-15T05:40:55.880Z,0
2019-01-15T05:41:55.854Z,0
2019-01-15T05:42:55.930Z,0
2019-01-15T05:43:55.816Z,0
2019-01-15T05:44:55.799Z,0
2019-01-15T05:45:55.777Z,0
2019-01-15T05:46:55.763Z,0
2019-01-15T05:47:55.741Z,0
2019-01-15T05:48:55.472Z,0
2019-01-15T05:49:55.694Z,0
2019-01-15T05:50:55.680Z,0
2019-01-15T05:51:55.657Z,0
2019-01-15T05:52:55.647Z,0
2019-01-15T05:53:55.621Z,0
2019-01-15T05:54:55.355Z,0
2019-01-15T05:55:55.590Z,0
2019-01-15T05:56:55.582Z,0
2019-01-15T05:57:55.294Z,0
2019-01-15T05:58:55.526Z,0
2019-01-15T05:59:54.998Z,0
2019-01-15T06:00:55.477Z,0
2019-01-15T06:01:55.214Z,0
2019-01-15T06:02:55.822Z,0
2019-01-15T06:03:55.417Z,0
2019-01-15T06:04:55.401Z,0
2019-01-15T06:05:55.431Z,0
2019-01-15T06:06:55.113Z,0
2019-01-15T06:07:55.352Z,0
2019-01-15T06:08:55.329Z,0
2019-01-15T06:09:55.054Z,0
2019-01-15T06:10:55.284Z,0
2019-01-15T06:11:55.269Z,0
2019-01-15T06:12:55.248Z,0
2019-01-15T06:13:55.230Z,0
2019-01-15T06:14:55.202Z,0
2019-01-15T06:15:54.934Z,0
2019-01-15T06:16:55.174Z,0
2019-01-15T06:17:55.160Z,0
2019-01-15T06:18:55.121Z,0
2019-01-15T06:19:55.106Z,0
2019-01-15T06:20:55.095Z,0
2019-01-15T06:21:55.075Z,0
2019-01-15T06:22:55.052Z,0
2019-01-15T06:23:55.033Z,0
2019-01-15T06:24:55.015Z,0
2019-01-15T06:25:54.744Z,0
2019-01-15T06:26:54.969Z,0
2019-01-15T06:27:54.949Z,0
2019-01-15T06:28:54.681Z,0
2019-01-15T06:29:54.912Z,0
2019-01-15T06:30:54.903Z,0
2019-01-15T06:31:54.625Z,0
2019-01-15T06:32:54.367Z,0
2019-01-15T06:33:54.588Z,0
2019-01-15T06:34:54.821Z,0
2019-01-15T06:35:54.799Z,4
2019-01-15T06:36:54.775Z,4
2019-01-15T06:37:56.312Z,0
2019-01-15T06:38:54.492Z,4
2019-01-15T06:39:54.711Z,4
2019-01-15T06:40:54.451Z,4
2019-01-15T06:41:54.688Z,8
2019-01-15T06:42:54.655Z,8
2019-01-15T06:43:57.345Z,8
2019-01-15T06:44:54.612Z,8
2019-01-15T06:45:54.598Z,8
2019-01-15T06:46:54.633Z,12
2019-01-15T06:47:54.565Z,12
2019-01-15T06:48:54.592Z,16
2019-01-15T06:49:54.530Z,16
2019-01-15T06:50:54.257Z,20
2019-01-15T06:51:54.231Z,24
2019-01-15T06:52:54.469Z,32
2019-01-15T06:53:54.200Z,32
2019-01-15T06:54:54.429Z,40
2019-01-15T06:55:54.403Z,44
2019-01-15T06:56:54.392Z,48
2019-01-15T06:57:54.359Z,56
2019-01-15T06:58:54.103Z,60
2019-01-15T06:59:55.042Z,68
2019-01-15T07:00:54.306Z,76
2019-01-15T07:01:54.289Z,84
2019-01-15T07:02:53.780Z,96
2019-01-15T07:03:53.749Z,108
2019-01-15T07:04:54.240Z,116
2019-01-15T07:05:54.206Z,124
2019-01-15T07:06:54.238Z,136
2019-01-15T07:07:53.670Z,152
2019-01-15T07:08:54.149Z,164
2019-01-15T07:09:54.134Z,176
2019-01-15T07:10:54.111Z,192
2019-01-15T07:11:54.093Z,212
2019-01-15T07:12:54.069Z,224
2019-01-15T07:14:01.782Z,244
2019-01-15T07:14:53.537Z,252
2019-01-15T07:15:54.002Z,268
2019-01-15T07:16:53.752Z,288
2019-01-15T07:17:53.721Z,300
2019-01-15T07:18:53.951Z,316
2019-01-15T07:19:53.937Z,332
2019-01-15T07:20:53.927Z,360
2019-01-15T07:21:53.886Z,392
2019-01-15T07:22:53.886Z,416
2019-01-15T07:23:53.860Z,436
2019-01-15T07:24:53.833Z,460
2019-01-15T07:25:53.816Z,488
2019-01-15T07:26:53.789Z,520
2019-01-15T07:27:53.777Z,548
2019-01-15T07:28:53.508Z,572
2019-01-15T07:29:53.738Z,592
2019-01-15T07:30:53.719Z,612
2019-01-15T07:31:53.691Z,636
2019-01-15T07:32:55.311Z,660
2019-01-15T07:33:53.661Z,688
2019-01-15T07:34:53.639Z,716
2019-01-15T07:35:53.670Z,744
2019-01-15T07:36:53.598Z,780
2019-01-15T07:37:53.576Z,816
2019-01-15T07:38:53.560Z,864
2019-01-15T07:39:53.530Z,924
2019-01-15T07:40:53.278Z,992
2019-01-15T07:41:53.492Z,1044
2019-01-15T07:42:53.482Z,1064
2019-01-15T07:43:53.479Z,1088
2019-01-15T07:44:53.437Z,1096
2019-01-15T07:45:53.169Z,1096
2019-01-15T07:46:53.398Z,1120
2019-01-15T07:47:53.380Z,1136
2019-01-15T07:48:53.362Z,1160
2019-01-15T07:49:53.345Z,1164
2019-01-15T07:50:53.320Z,1160
2019-01-15T07:51:53.305Z,1188
2019-01-15T07:52:53.038Z,1244
2019-01-15T07:53:53.278Z,1292
2019-01-15T07:54:53.243Z,1344
2019-01-15T07:55:53.223Z,1392
2019-01-15T07:56:53.204Z,1420
2019-01-15T07:57:53.185Z,1468
2019-01-15T07:58:53.182Z,1528
2019-01-15T07:59:53.148Z,1572
2019-01-15T08:00:53.125Z,1604
2019-01-15T08:01:52.866Z,1660
2019-01-15T08:02:53.096Z,1684
2019-01-15T08:03:53.072Z,1704
2019-01-15T08:04:54.622Z,1736
2019-01-15T08:05:53.042Z,1768
2019-01-15T08:06:52.768Z,1796
2019-01-15T08:07:53.003Z,1836
2019-01-15T08:08:52.977Z,1884
2019-01-15T08:09:52.717Z,1944
2019-01-15T08:10:59.435Z,2008
2019-01-15T08:11:52.920Z,2044
2019-01-15T08:12:52.961Z,2040
2019-01-15T08:13:52.877Z,2072
2019-01-15T08:14:52.860Z,2104
2019-01-15T08:15:52.850Z,2160
2019-01-15T08:16:52.972Z,2196
2019-01-15T08:17:52.803Z,2244
2019-01-15T08:18:52.779Z,2292
2019-01-15T08:19:52.766Z,2308
2019-01-15T08:20:52.755Z,2352
2019-01-15T08:21:52.750Z,2372
2019-01-15T08:22:52.707Z,2412
2019-01-15T08:23:52.445Z,2460
2019-01-15T08:24:52.670Z,2476
2019-01-15T08:25:52.651Z,2488
2019-01-15T08:26:52.626Z,2532
2019-01-15T08:27:52.612Z,2548
2019-01-15T08:28:52.590Z,2584
2019-01-15T08:29:52.575Z,2624
2019-01-15T08:30:52.556Z,2656
2019-01-15T08:31:52.285Z,2696
2019-01-15T08:32:52.262Z,2788
2019-01-15T08:33:52.248Z,2840
2019-01-15T08:34:51.981Z,2856
2019-01-15T08:35:52.217Z,2884
2019-01-15T08:36:52.492Z,2948
2019-01-15T08:37:52.416Z,2928
2019-01-15T08:38:52.152Z,2932
2019-01-15T08:39:52.380Z,2936
2019-01-15T08:40:52.359Z,2932
2019-01-15T08:41:52.347Z,2984
2019-01-15T08:42:52.335Z,2984
2019-01-15T08:43:52.303Z,3008
2019-01-15T08:44:52.289Z,3088
2019-01-15T08:45:55.298Z,3120
2019-01-15T08:46:52.052Z,3216
2019-01-15T08:47:52.739Z,3216
2019-01-15T08:48:51.958Z,3252
2019-01-15T08:49:52.202Z,3312
2019-01-15T08:50:51.936Z,3304
2019-01-15T08:51:51.908Z,3300
2019-01-15T08:52:52.137Z,3240
2019-01-15T08:53:52.118Z,3304
2019-01-15T08:54:51.857Z,3340
2019-01-15T08:55:51.589Z,3388
2019-01-15T08:56:52.061Z,3432
2019-01-15T08:57:52.043Z,3432
2019-01-15T08:58:52.024Z,3472
2019-01-15T08:59:52.004Z,3536
2019-01-15T09:00:51.750Z,3544
2019-01-15T09:01:51.977Z,3556
2019-01-15T09:02:51.998Z,3624
2019-01-15T09:03:51.938Z,3604
2019-01-15T09:04:51.661Z,3628
2019-01-15T09:05:51.894Z,3720
2019-01-15T09:06:51.917Z,3844
2019-01-15T09:07:51.619Z,3960
2019-01-15T09:08:51.843Z,4104
2019-01-15T09:09:51.845Z,4152
2019-01-15T09:10:51.804Z,4152
2019-01-15T09:11:51.787Z,4160
2019-01-15T09:12:51.774Z,4204
2019-01-15T09:13:51.792Z,4212
2019-01-15T09:14:51.735Z,4172
2019-01-15T09:15:51.721Z,4132
2019-01-15T09:16:51.721Z,3992
2019-01-15T09:17:51.428Z,3924
2019-01-15T09:18:51.750Z,4028
2019-01-15T09:19:51.392Z,4004
2019-01-15T09:20:51.624Z,4172
2019-01-15T09:21:51.667Z,4276
2019-01-15T09:22:51.345Z,4388
2019-01-15T09:23:51.570Z,4472
2019-01-15T09:24:51.653Z,4592
2019-01-15T09:25:51.282Z,4500
2019-01-15T09:26:51.515Z,4464
2019-01-15T09:27:51.643Z,4276
2019-01-15T09:28:51.473Z,4232
2019-01-15T09:29:51.452Z,4236
2019-01-15T09:30:51.442Z,4040
2019-01-15T09:31:51.420Z,4192
2019-01-15T09:32:51.401Z,4352
2019-01-15T09:33:51.390Z,4368
2019-01-15T09:34:51.362Z,3912
2019-01-15T09:35:51.999Z,4152
2019-01-15T09:36:51.331Z,4328
2019-01-15T09:37:51.320Z,4636
2019-01-15T09:38:51.296Z,4728
2019-01-15T09:39:51.275Z,4636
2019-01-15T09:40:51.260Z,4800
2019-01-15T09:41:50.993Z,5164
2019-01-15T09:42:50.977Z,5220
2019-01-15T09:43:51.205Z,5200
2019-01-15T09:44:51.203Z,5364
2019-01-15T09:45:50.923Z,5500
2019-01-15T09:46:50.899Z,5684
2019-01-15T09:47:51.140Z,6136
2019-01-15T09:48:51.110Z,6144
2019-01-15T09:49:51.102Z,6476
2019-01-15T09:50:51.079Z,6624
2019-01-15T09:51:51.067Z,6436
2019-01-15T09:52:50.791Z,6184
2019-01-15T09:53:51.024Z,5940
2019-01-15T09:54:50.772Z,6048
2019-01-15T09:55:50.993Z,6044
2019-01-15T09:56:50.982Z,5348
2019-01-15T09:57:50.953Z,5404
2019-01-15T09:58:50.941Z,5704
2019-01-15T09:59:50.926Z,5224
2019-01-15T10:00:50.413Z,5088
2019-01-15T10:01:50.912Z,5536
2019-01-15T10:02:50.886Z,5784
2019-01-15T10:03:50.857Z,6344
2019-01-15T10:04:50.991Z,6924
2019-01-15T10:05:50.572Z,6944
2019-01-15T10:06:50.552Z,6276
2019-01-15T10:07:50.789Z,6212
2019-01-15T10:08:50.772Z,5788
2019-01-15T10:09:50.749Z,5568
2019-01-15T10:10:50.726Z,5216
2019-01-15T10:11:50.467Z,5760
2019-01-15T10:12:50.756Z,5832
2019-01-15T10:13:50.678Z,5556
2019-01-15T10:14:50.666Z,5636
2019-01-15T10:15:50.643Z,5520
2019-01-15T10:16:50.630Z,5632
2019-01-15T10:17:50.613Z,6180
2019-01-15T10:18:50.593Z,6688
2019-01-15T10:19:50.338Z,6852
2019-01-15T10:20:50.558Z,7168
2019-01-15T10:21:50.542Z,7448
2019-01-15T10:22:50.276Z,7064
2019-01-15T10:23:50.499Z,7000
2019-01-15T10:24:50.491Z,6324
2019-01-15T10:25:49.972Z,5840
2019-01-15T10:26:50.485Z,5616
2019-01-15T10:27:50.186Z,6168
2019-01-15T10:28:50.419Z,6092
2019-01-15T10:29:50.162Z,6084
2019-01-15T10:30:50.380Z,5776
2019-01-15T10:31:50.370Z,6124
2019-01-15T10:32:50.343Z,6092
2019-01-15T10:33:50.099Z,5740
2019-01-15T10:34:50.063Z,5520
2019-01-15T10:35:50.294Z,5880
2019-01-15T10:36:50.298Z,6312
2019-01-15T10:37:50.273Z,6208
2019-01-15T10:38:50.257Z,6092
2019-01-15T10:39:50.231Z,5776
2019-01-15T10:40:49.958Z,5980
2019-01-15T10:41:49.945Z,6180
2019-01-15T10:42:49.928Z,6032
2019-01-15T10:43:50.155Z,6036
2019-01-15T10:44:55.849Z,5680
2019-01-15T10:45:49.627Z,5908
2019-01-15T10:46:50.111Z,5852
2019-01-15T10:47:49.847Z,6084
2019-01-15T10:48:50.073Z,6636
2019-01-15T10:49:50.060Z,6252
2019-01-15T10:50:50.035Z,6436
2019-01-15T10:51:50.012Z,6436
2019-01-15T10:52:50.005Z,6176
2019-01-15T10:53:49.982Z,6128
2019-01-15T10:54:49.724Z,5900
2019-01-15T10:55:49.718Z,5424
2019-01-15T10:56:49.442Z,4784
2019-01-15T10:57:49.916Z,4084
2019-01-15T10:58:49.895Z,3656
2019-01-15T10:59:49.878Z,3792
2019-01-15T11:00:49.869Z,3980
2019-01-15T11:01:49.851Z,4660
2019-01-15T11:02:49.824Z,5044
2019-01-15T11:03:49.815Z,5488
2019-01-15T11:04:49.807Z,5220
2019-01-15T11:05:49.787Z,5248
2019-01-15T11:06:49.754Z,5600
2019-01-15T11:07:49.750Z,5040
2019-01-15T11:08:49.476Z,5372
2019-01-15T11:09:49.706Z,6416
2019-01-15T11:10:49.689Z,6172
2019-01-15T11:11:49.669Z,5344
2019-01-15T11:12:49.415Z,5124
2019-01-15T11:13:49.656Z,5016
2019-01-15T11:14:55.807Z,5560
2019-01-15T11:15:50.681Z,5744
2019-01-15T11:16:49.598Z,6316
2019-01-15T11:17:49.572Z,6608
2019-01-15T11:18:49.307Z,6200
2019-01-15T11:19:49.540Z,5704
2019-01-15T11:20:49.509Z,5332
2019-01-15T11:21:49.495Z,4628
2019-01-15T11:22:49.535Z,4336
2019-01-15T11:23:49.467Z,4348
2019-01-15T11:24:49.440Z,4400
2019-01-15T11:25:49.430Z,5032
2019-01-15T11:26:49.407Z,5388
2019-01-15T11:27:49.396Z,5536
2019-01-15T11:28:49.377Z,5412
2019-01-15T11:29:49.367Z,5980
2019-01-15T11:30:49.342Z,6524
2019-01-15T11:31:49.327Z,6772
2019-01-15T11:32:49.300Z,6248
2019-01-15T11:33:49.295Z,5896
2019-01-15T11:34:49.273Z,5688
2019-01-15T11:35:49.253Z,5512
2019-01-15T11:36:49.236Z,4864
2019-01-15T11:37:49.217Z,4380
2019-01-15T11:38:49.200Z,4628
2019-01-15T11:39:48.937Z,4596
2019-01-15T11:40:49.175Z,4740
2019-01-15T11:41:49.145Z,5256
2019-01-15T11:42:49.132Z,5708
2019-01-15T11:43:49.111Z,5964
2019-01-15T11:44:48.851Z,6260
2019-01-15T11:45:49.067Z,6236
2019-01-15T11:46:49.059Z,6224
2019-01-15T11:47:49.040Z,6412
2019-01-15T11:48:48.778Z,6488
2019-01-15T11:49:49.018Z,6548
2019-01-15T11:50:48.737Z,6572
2019-01-15T11:51:48.966Z,6628
2019-01-15T11:52:48.966Z,6436
2019-01-15T11:53:48.933Z,6200
2019-01-15T11:54:48.926Z,5588
2019-01-15T11:55:48.895Z,5228
2019-01-15T11:56:48.646Z,5256
2019-01-15T11:57:48.860Z,5652
2019-01-15T11:58:48.847Z,5812
2019-01-15T11:59:48.832Z,5876
2019-01-15T12:00:48.824Z,5700
2019-01-15T12:01:48.801Z,5548
2019-01-15T12:02:48.769Z,5588
2019-01-15T12:03:48.763Z,5288
2019-01-15T12:04:48.744Z,5124
2019-01-15T12:05:48.727Z,4940
2019-01-15T12:06:48.708Z,4740
2019-01-15T12:07:48.690Z,4732
2019-01-15T12:08:48.431Z,4912
2019-01-15T12:09:48.654Z,5256
2019-01-15T12:10:48.634Z,5476
2019-01-15T12:11:48.380Z,5284
2019-01-15T12:12:48.400Z,4952
2019-01-15T12:13:48.583Z,4896
2019-01-15T12:14:48.577Z,4876
2019-01-15T12:15:48.552Z,4904
2019-01-15T12:16:48.537Z,5084
2019-01-15T12:17:48.268Z,5284
2019-01-15T12:18:48.497Z,5236
2019-01-15T12:19:48.475Z,4844
2019-01-15T12:20:48.464Z,4428
2019-01-15T12:21:48.446Z,4152
2019-01-15T12:22:48.423Z,3772
2019-01-15T12:23:48.415Z,3600
2019-01-15T12:24:48.390Z,3700
2019-01-15T12:25:48.375Z,3832
2019-01-15T12:26:48.356Z,3908
2019-01-15T12:27:48.340Z,4444
2019-01-15T12:28:48.320Z,4360
2019-01-15T12:29:48.304Z,4408
2019-01-15T12:30:48.286Z,4452
2019-01-15T12:31:48.018Z,4312
2019-01-15T12:32:48.250Z,4056
2019-01-15T12:33:47.986Z,3832
2019-01-15T12:34:47.964Z,3796
2019-01-15T12:35:48.195Z,3692
2019-01-15T12:36:48.179Z,3512
2019-01-15T12:37:48.167Z,3552
2019-01-15T12:38:48.142Z,3496
2019-01-15T12:39:47.881Z,3620
2019-01-15T12:40:47.859Z,3504
2019-01-15T12:41:48.088Z,3460
2019-01-15T12:42:48.071Z,3156
2019-01-15T12:43:48.056Z,3060
2019-01-15T12:44:48.049Z,3088
2019-01-15T12:45:48.029Z,3020
2019-01-15T12:46:48.056Z,3088
2019-01-15T12:47:47.739Z,3096
2019-01-15T12:48:47.969Z,3180
2019-01-15T12:49:47.958Z,3348
2019-01-15T12:50:47.933Z,3380
2019-01-15T12:51:47.670Z,3332
2019-01-15T12:52:47.906Z,3364
2019-01-15T12:53:47.875Z,3228
2019-01-15T12:54:47.902Z,3144
2019-01-15T12:55:47.838Z,3400
2019-01-15T12:56:47.826Z,3396
2019-01-15T12:57:47.811Z,3356
2019-01-15T12:58:47.545Z,3364
2019-01-15T12:59:47.776Z,3272
2019-01-15T13:00:47.510Z,3052
2019-01-15T13:01:47.737Z,2896
2019-01-15T13:02:47.471Z,2836
2019-01-15T13:03:47.709Z,2932
2019-01-15T13:04:48.362Z,2656
2019-01-15T13:05:47.663Z,2492
2019-01-15T13:06:47.641Z,2332
2019-01-15T13:07:47.628Z,2200
2019-01-15T13:08:47.380Z,2160
2019-01-15T13:09:47.590Z,2000
2019-01-15T13:10:47.574Z,2100
2019-01-15T13:11:47.563Z,2036
2019-01-15T13:12:47.547Z,2112
2019-01-15T13:13:47.523Z,2200
2019-01-15T13:14:47.508Z,2228
2019-01-15T13:15:47.532Z,2280
2019-01-15T13:16:47.468Z,2368
2019-01-15T13:17:47.199Z,2364
2019-01-15T13:18:47.440Z,2380
2019-01-15T13:19:47.410Z,2232
2019-01-15T13:20:46.897Z,2204
2019-01-15T13:21:47.131Z,2092
2019-01-15T13:22:47.360Z,2144
2019-01-15T13:23:47.337Z,2096
2019-01-15T13:24:47.320Z,1964
2019-01-15T13:25:47.066Z,1992
2019-01-15T13:26:47.039Z,2072
2019-01-15T13:27:47.023Z,2060
2019-01-15T13:28:46.997Z,2092
2019-01-15T13:29:47.242Z,2168
2019-01-15T13:30:46.962Z,1956
2019-01-15T13:31:46.943Z,2060
2019-01-15T13:32:46.993Z,2016
2019-01-15T13:33:47.161Z,1944
2019-01-15T13:34:47.140Z,1896
2019-01-15T13:35:47.127Z,1824
2019-01-15T13:36:47.109Z,1800
2019-01-15T13:37:47.090Z,1776
2019-01-15T13:38:47.070Z,2008
2019-01-15T13:39:47.099Z,2116
2019-01-15T13:40:47.032Z,2364
2019-01-15T13:41:47.022Z,2552
2019-01-15T13:42:46.996Z,2384
2019-01-15T13:43:46.726Z,2284
2019-01-15T13:44:47.007Z,2376
2019-01-15T13:45:48.907Z,2536
2019-01-15T13:46:46.925Z,2640
2019-01-15T13:47:46.911Z,2624
2019-01-15T13:48:46.890Z,2548
2019-01-15T13:49:46.862Z,2348
2019-01-15T13:50:46.608Z,2160
2019-01-15T13:51:46.582Z,2064
2019-01-15T13:52:46.811Z,2020
2019-01-15T13:53:46.795Z,2136
2019-01-15T13:54:46.787Z,1988
2019-01-15T13:55:46.759Z,1856
2019-01-15T13:56:46.740Z,1640
2019-01-15T13:57:46.484Z,1756
2019-01-15T13:58:46.712Z,1852
2019-01-15T13:59:46.739Z,1844
2019-01-15T14:00:47.011Z,1808